Time;durP1;ratioP1;P1;durP2;ratioP2;P2;SDS_P1;SDS_P2;PMS_P1;PMS_P2;Temp;Humidity;BMP_temperature;BMP_pressure;BME280_temperature;BME280_humidity;BME280_pressure;Samples;Min_cycle;Max_cycle;Signal;HPM_P1;HPM_P2
2022/10/22 00:00:07;;;;;;;1.63;0.70;;;14.90;99.90;;;;;;5020525;28;20194;-76
2022/10/22 00:02:34;;;;;;;1.40;0.80;;;14.90;99.90;;;;;;5018700;28;20126;-76
2022/10/22 00:05:01;;;;;;;2.28;0.80;;;14.90;99.90;;;;;;5019760;28;20423;-76
2022/10/22 00:07:27;;;;;;;1.23;0.77;;;14.90;99.90;;;;;;5006911;28;20087;-78
2022/10/22 00:09:54;;;;;;;1.85;0.63;;;14.90;99.90;;;;;;4992209;28;20049;-76
2022/10/22 00:12:21;;;;;;;0.63;0.43;;;14.90;99.90;;;;;;5021948;28;20057;-77
2022/10/22 00:14:48;;;;;;;2.13;0.80;;;14.90;99.90;;;;;;5040627;28;20530;-78
2022/10/22 00:17:15;;;;;;;2.15;0.75;;;15.00;99.90;;;;;;4991353;28;20075;-76
2022/10/22 00:19:41;;;;;;;2.00;0.80;;;15.00;99.90;;;;;;4991593;28;20054;-75
2022/10/22 00:22:08;;;;;;;1.50;0.63;;;15.00;99.90;;;;;;5019030;28;20515;-75
2022/10/22 00:24:36;;;;;;;1.63;0.90;;;14.90;99.90;;;;;;5024432;28;20444;-76
2022/10/22 00:27:03;;;;;;;2.20;0.90;;;14.90;99.90;;;;;;4991720;28;20483;-75
2022/10/22 00:29:29;;;;;;;2.45;0.80;;;14.90;99.90;;;;;;4991697;28;20623;-76
2022/10/22 00:31:56;;;;;;;1.85;0.65;;;14.90;99.90;;;;;;5017600;28;20057;-77
2022/10/22 00:34:23;;;;;;;1.27;0.73;;;15.00;99.90;;;;;;5024086;28;20053;-77
2022/10/22 00:36:50;;;;;;;2.45;0.80;;;15.00;99.90;;;;;;4990441;28;20516;-76
2022/10/22 00:39:18;;;;;;;0.80;0.50;;;15.00;99.90;;;;;;5023921;28;20046;-77
2022/10/22 00:41:46;;;;;;;2.03;0.60;;;15.10;99.90;;;;;;5017452;28;20056;-76
2022/10/22 00:44:50;;;;;;;2.00;0.60;;;15.10;99.90;;;;;;5021445;28;20073;-76
2022/10/22 00:47:17;;;;;;;1.27;0.73;;;15.10;99.90;;;;;;5039342;28;20042;-76
2022/10/22 00:49:44;;;;;;;1.40;0.50;;;15.10;99.90;;;;;;5007573;28;20054;-76
2022/10/22 00:52:11;;;;;;;1.02;0.60;;;15.10;99.90;;;;;;5002270;28;20045;-76
2022/10/22 00:54:37;;;;;;;0.65;0.50;;;15.10;99.90;;;;;;5007245;28;20527;-77
2022/10/22 00:57:04;;;;;;;0.73;0.50;;;15.10;99.90;;;;;;4991414;28;20061;-77
2022/10/22 00:59:31;;;;;;;0.70;0.47;;;15.10;99.90;;;;;;5007413;28;20477;-77
2022/10/22 01:17:05;;;;;;;1.25;0.70;;;15.10;99.90;;;;;;4353348;28;20063;-76
2022/10/22 01:19:53;;;;;;;1.52;0.70;;;15.10;99.90;;;;;;5009524;28;20507;-76
2022/10/22 01:22:41;;;;;;;1.10;0.65;;;15.10;99.90;;;;;;5042172;28;20148;-76
2022/10/22 01:25:20;;;;;;;1.10;0.60;;;15.00;99.90;;;;;;5023344;28;20061;-76
2022/10/22 01:28:02;;;;;;;1.70;0.80;;;14.90;99.90;;;;;;5007775;28;20453;-76
2022/10/22 01:30:29;;;;;;;0.98;0.52;;;14.90;99.90;;;;;;5024553;28;20476;-76
2022/10/22 01:33:00;;;;;;;1.42;0.60;;;14.80;99.90;;;;;;5024103;28;20103;-75
2022/10/22 01:35:28;;;;;;;1.52;0.60;;;14.70;99.90;;;;;;5041300;28;20053;-77
2022/10/22 01:37:57;;;;;;;1.02;0.70;;;14.70;99.90;;;;;;5025091;28;20049;-75
2022/10/22 01:40:24;;;;;;;1.25;0.60;;;14.60;99.90;;;;;;5041456;28;20049;-75
2022/10/22 01:43:04;;;;;;;1.48;0.60;;;14.60;99.90;;;;;;5044058;28;20052;-76
2022/10/22 01:45:52;;;;;;;1.70;0.52;;;14.60;99.90;;;;;;5045204;28;20053;-77
2022/10/22 01:48:31;;;;;;;1.90;0.90;;;14.60;99.90;;;;;;5027863;28;20059;-76
2022/10/22 01:51:04;;;;;;;0.57;0.43;;;14.60;99.90;;;;;;5044601;28;20064;-75
2022/10/22 01:53:43;;;;;;;1.30;0.50;;;14.70;99.90;;;;;;5024577;28;20060;-75
2022/10/22 01:56:26;;;;;;;0.80;0.50;;;14.70;99.90;;;;;;5041301;28;20718;-75
2022/10/22 01:59:22;;;;;;;0.88;0.68;;;14.70;99.90;;;;;;5010230;28;20049;-75
2022/10/22 02:02:05;;;;;;;2.83;0.68;;;14.80;99.90;;;;;;5017899;28;20052;-75
2022/10/22 02:04:48;;;;;;;1.88;0.70;;;14.80;99.90;;;;;;5040529;28;20049;-75
2022/10/22 02:07:17;;;;;;;1.80;0.68;;;14.80;99.90;;;;;;5008345;28;20061;-75
2022/10/22 02:09:44;;;;;;;1.42;0.75;;;14.80;99.90;;;;;;5008361;28;20477;-76
2022/10/22 02:12:10;;;;;;;2.22;0.90;;;14.80;99.90;;;;;;5022735;28;20431;-75
2022/10/22 02:14:38;;;;;;;1.70;0.60;;;14.70;99.90;;;;;;5009754;28;20224;-75
2022/10/22 02:17:06;;;;;;;2.10;0.93;;;14.70;99.90;;;;;;5008707;28;20060;-75
2022/10/22 02:19:41;;;;;;;1.25;0.50;;;14.80;99.90;;;;;;5009563;28;20057;-75
2022/10/22 02:22:07;;;;;;;2.75;1.13;;;14.80;99.90;;;;;;5008721;28;20049;-75
2022/10/22 02:24:34;;;;;;;0.90;0.55;;;14.90;99.90;;;;;;5040511;28;20045;-76
2022/10/22 02:27:33;;;;;;;1.35;0.60;;;14.90;99.90;;;;;;5029302;28;20514;-75
2022/10/22 02:30:06;;;;;;;1.63;0.70;;;14.90;99.90;;;;;;5045238;28;20053;-75
2022/10/22 02:32:49;;;;;;;2.03;1.00;;;14.90;99.90;;;;;;5044961;28;20473;-75
2022/10/22 02:35:18;;;;;;;3.78;0.80;;;14.90;99.90;;;;;;5029919;28;20048;-77
2022/10/22 02:37:45;;;;;;;1.58;0.70;;;14.80;99.90;;;;;;5028427;28;20060;-75
2022/10/22 02:40:12;;;;;;;1.95;0.85;;;14.80;99.90;;;;;;5012571;28;20524;-76
2022/10/22 02:42:39;;;;;;;1.90;0.60;;;14.80;99.90;;;;;;5012473;28;20080;-75
2022/10/22 02:45:06;;;;;;;1.02;0.75;;;14.80;99.90;;;;;;5009279;28;20137;-76
2022/10/22 02:47:33;;;;;;;1.55;0.73;;;14.80;99.90;;;;;;4992441;28;20057;-76
2022/10/22 02:50:00;;;;;;;1.55;0.80;;;14.80;99.90;;;;;;4992721;28;20042;-76
2022/10/22 02:52:28;;;;;;;1.83;0.65;;;14.80;99.90;;;;;;4992573;28;20053;-76
2022/10/22 02:54:55;;;;;;;1.00;0.82;;;14.70;99.90;;;;;;5026341;28;20044;-76
2022/10/22 02:57:21;;;;;;;2.05;0.75;;;14.70;99.90;;;;;;5012491;28;20049;-76
2022/10/22 02:59:48;;;;;;;2.22;0.80;;;14.70;99.90;;;;;;5045005;28;20052;-75
2022/10/22 03:02:15;;;;;;;1.63;0.70;;;14.70;99.90;;;;;;5044096;28;20060;-75
2022/10/22 03:04:42;;;;;;;1.70;0.70;;;14.80;99.90;;;;;;5024736;28;20069;-75
2022/10/22 03:07:08;;;;;;;0.75;0.60;;;14.80;99.90;;;;;;5024516;28;20053;-76
2022/10/22 03:09:35;;;;;;;0.45;0.40;;;14.80;99.90;;;;;;5026785;28;20048;-77
2022/10/22 03:12:02;;;;;;;3.88;0.80;;;14.80;99.90;;;;;;5008518;28;20049;-75
2022/10/22 03:14:29;;;;;;;1.13;0.70;;;14.90;99.90;;;;;;5040258;28;20049;-76
2022/10/22 03:16:55;;;;;;;1.00;0.57;;;14.80;99.90;;;;;;5043780;28;20065;-75
2022/10/22 03:19:22;;;;;;;1.65;0.70;;;14.80;99.90;;;;;;5045703;28;20067;-76
2022/10/22 03:21:53;;;;;;;1.38;0.60;;;14.70;99.90;;;;;;5044918;28;20059;-76
2022/10/22 03:24:29;;;;;;;1.85;0.80;;;14.70;99.90;;;;;;5024794;28;20050;-76
2022/10/22 03:26:56;;;;;;;0.75;0.50;;;14.60;99.90;;;;;;4992235;28;20060;-76
2022/10/22 03:29:23;;;;;;;1.33;0.60;;;14.60;99.90;;;;;;5008574;28;20508;-76
2022/10/22 03:31:49;;;;;;;1.40;0.50;;;14.60;99.90;;;;;;5007252;28;20740;-76
2022/10/22 03:34:16;;;;;;;0.80;0.50;;;14.50;99.90;;;;;;5035850;28;20059;-77
2022/10/22 03:36:43;;;;;;;0.45;0.45;;;14.50;99.90;;;;;;5026561;28;20053;-76
2022/10/22 03:39:11;;;;;;;0.52;0.40;;;14.50;99.90;;;;;;5011839;28;20457;-76
2022/10/22 03:41:37;;;;;;;0.70;0.47;;;14.60;99.90;;;;;;5011042;28;20057;-75
2022/10/22 03:44:04;;;;;;;0.73;0.50;;;14.50;99.90;;;;;;5044375;28;20049;-76
2022/10/22 03:46:31;;;;;;;1.00;0.70;;;14.50;99.90;;;;;;5026970;28;20052;-75
2022/10/22 03:48:57;;;;;;;1.55;0.55;;;14.50;99.90;;;;;;5011267;28;20056;-76
2022/10/22 03:51:28;;;;;;;1.65;0.70;;;14.50;99.90;;;;;;5011304;28;20132;-76
2022/10/22 03:53:54;;;;;;;1.70;0.80;;;14.60;99.90;;;;;;5007840;28;20461;-75
2022/10/22 03:56:21;;;;;;;0.40;0.40;;;14.60;99.90;;;;;;5007744;28;20061;-76
2022/10/22 03:58:48;;;;;;;1.10;0.50;;;14.60;99.90;;;;;;4992008;28;20048;-75
2022/10/22 04:01:15;;;;;;;1.15;0.68;;;14.60;99.90;;;;;;5024539;28;20053;-75
2022/10/22 04:03:42;;;;;;;2.67;0.90;;;14.60;99.90;;;;;;5030579;28;20045;-75
2022/10/22 04:06:10;;;;;;;0.93;0.57;;;14.60;99.90;;;;;;5045143;28;20051;-75
2022/10/22 04:08:38;;;;;;;1.33;0.70;;;14.50;99.90;;;;;;5043755;28;20045;-75
2022/10/22 04:11:05;;;;;;;1.23;0.60;;;14.50;99.90;;;;;;5043676;28;20115;-75
2022/10/22 04:13:31;;;;;;;0.50;0.45;;;14.50;99.90;;;;;;5023881;28;20501;-76
2022/10/22 04:16:15;;;;;;;2.30;0.70;;;14.40;99.90;;;;;;5023159;28;20053;-75
2022/10/22 04:18:42;;;;;;;1.15;0.80;;;14.30;99.90;;;;;;5007328;28;20079;-76
2022/10/22 04:21:09;;;;;;;1.73;0.88;;;14.30;99.90;;;;;;5022976;28;20053;-75
2022/10/22 04:23:36;;;;;;;1.98;0.75;;;14.30;99.90;;;;;;4996117;28;20060;-75
2022/10/22 04:26:04;;;;;;;1.40;0.68;;;14.20;99.90;;;;;;5027034;28;20053;-75
2022/10/22 04:28:32;;;;;;;2.42;0.70;;;14.20;99.90;;;;;;5027902;28;20045;-75
2022/10/22 04:30:58;;;;;;;1.35;0.77;;;14.20;99.90;;;;;;5027294;28;20045;-75
2022/10/22 04:33:25;;;;;;;1.80;0.90;;;14.10;99.90;;;;;;5023313;28;20148;-75
2022/10/22 04:35:52;;;;;;;1.30;0.80;;;14.10;99.90;;;;;;5006770;28;20049;-75
2022/10/22 04:38:19;;;;;;;2.47;0.93;;;14.00;99.90;;;;;;5007135;28;20053;-76
2022/10/22 04:40:45;;;;;;;3.17;0.90;;;14.00;99.90;;;;;;5007441;28;20108;-74
2022/10/22 04:43:12;;;;;;;3.28;0.70;;;14.00;99.90;;;;;;5024941;28;20478;-75
2022/10/22 04:45:39;;;;;;;1.65;0.70;;;13.90;99.90;;;;;;5026901;28;20138;-75
2022/10/22 04:48:06;;;;;;;2.42;0.80;;;13.90;99.90;;;;;;5038497;28;20064;-75
2022/10/22 04:50:32;;;;;;;1.63;0.73;;;13.90;99.90;;;;;;5021382;28;20053;-75
2022/10/22 04:52:59;;;;;;;2.17;1.23;;;13.80;99.90;;;;;;5023873;28;20139;-75
2022/10/22 04:55:26;;;;;;;1.38;0.60;;;13.80;99.90;;;;;;5025374;28;20055;-75
2022/10/22 04:57:52;;;;;;;2.40;0.60;;;13.80;99.90;;;;;;5025141;28;20053;-74
2022/10/22 05:00:20;;;;;;;1.98;0.60;;;13.70;99.90;;;;;;5025000;28;20056;-75
2022/10/22 05:02:49;;;;;;;2.33;0.75;;;13.70;99.90;;;;;;5024647;28;20037;-75
2022/10/22 05:05:16;;;;;;;1.48;0.52;;;13.70;99.90;;;;;;5024214;28;20056;-75
2022/10/22 05:07:43;;;;;;;2.05;0.80;;;13.60;99.90;;;;;;5023387;28;20460;-75
2022/10/22 05:10:10;;;;;;;2.17;0.50;;;13.60;99.90;;;;;;5043269;28;20072;-76
2022/10/22 05:12:36;;;;;;;0.80;0.45;;;13.60;99.90;;;;;;5027211;28;20052;-76
2022/10/22 05:15:03;;;;;;;1.27;0.60;;;13.60;99.90;;;;;;5040368;28;20049;-75
2022/10/22 05:17:31;;;;;;;2.45;0.98;;;13.50;99.90;;;;;;4990141;28;20054;-74
2022/10/22 05:19:58;;;;;;;2.00;0.82;;;13.50;99.90;;;;;;5023171;28;20049;-75
2022/10/22 05:22:24;;;;;;;1.17;0.60;;;13.50;99.90;;;;;;5027317;28;20140;-75
2022/10/22 05:24:51;;;;;;;1.52;0.77;;;13.40;99.90;;;;;;5027047;28;20046;-74
2022/10/22 05:27:18;;;;;;;1.65;0.82;;;13.40;99.90;;;;;;5028602;28;20578;-77
2022/10/22 05:29:49;;;;;;;1.17;0.47;;;13.40;99.90;;;;;;5042497;28;20374;-74
2022/10/22 05:32:16;;;;;;;2.05;0.80;;;13.30;99.90;;;;;;5026833;28;20068;-75
2022/10/22 05:34:43;;;;;;;1.35;0.50;;;13.30;99.90;;;;;;5044123;28;20049;-75
2022/10/22 05:37:09;;;;;;;1.23;0.70;;;13.20;99.90;;;;;;5043397;28;20068;-74
2022/10/22 05:39:39;;;;;;;1.38;0.70;;;13.20;99.90;;;;;;5023217;28;20052;-75
2022/10/22 05:42:06;;;;;;;2.78;0.70;;;13.20;99.90;;;;;;5023354;28;20054;-74
2022/10/22 05:44:33;;;;;;;1.80;0.60;;;13.10;99.90;;;;;;5037602;28;20380;-75
2022/10/22 05:46:59;;;;;;;1.00;0.70;;;13.10;99.90;;;;;;5042939;28;20067;-74
2022/10/22 05:49:26;;;;;;;1.67;0.50;;;13.10;99.90;;;;;;5045581;28;20493;-75
2022/10/22 05:51:53;;;;;;;1.55;0.50;;;13.00;99.90;;;;;;5041301;28;20057;-75
2022/10/22 05:54:21;;;;;;;2.22;0.70;;;13.00;99.90;;;;;;5043002;28;20056;-75
2022/10/22 05:56:47;;;;;;;1.02;0.50;;;13.00;99.90;;;;;;5022952;28;20053;-74
2022/10/22 05:59:14;;;;;;;1.00;0.60;;;13.00;99.90;;;;;;5040945;28;20083;-75
2022/10/22 06:01:41;;;;;;;2.72;0.95;;;13.00;99.90;;;;;;5041172;28;20457;-75
2022/10/22 06:04:09;;;;;;;1.95;0.88;;;13.00;99.90;;;;;;5026685;28;20040;-75
2022/10/22 06:06:46;;;;;;;1.45;0.77;;;12.90;99.90;;;;;;5043960;28;20538;-75
2022/10/22 06:09:46;;;;;;;2.72;0.77;;;12.90;99.90;;;;;;5027516;28;20388;-77
2022/10/22 06:12:13;;;;;;;1.42;0.50;;;12.90;99.90;;;;;;5042998;28;20644;-75
2022/10/22 06:14:40;;;;;;;1.80;0.70;;;12.90;99.90;;;;;;5047100;28;20140;-75
2022/10/22 06:17:08;;;;;;;1.48;0.75;;;12.90;99.90;;;;;;5041361;28;20179;-75
2022/10/22 06:19:35;;;;;;;1.10;0.60;;;12.80;99.90;;;;;;5039908;28;20069;-75
2022/10/22 06:22:03;;;;;;;1.55;0.63;;;12.80;99.90;;;;;;5022894;28;20057;-75
2022/10/22 06:24:29;;;;;;;2.08;0.65;;;12.80;99.90;;;;;;5024845;28;20041;-75
2022/10/22 06:26:56;;;;;;;1.23;0.65;;;12.80;99.90;;;;;;5029380;28;20067;-75
2022/10/22 06:29:23;;;;;;;1.95;0.88;;;12.80;99.90;;;;;;5020004;28;20045;-76
2022/10/22 06:31:49;;;;;;;1.95;1.00;;;12.80;99.90;;;;;;5005051;28;20119;-76
2022/10/22 06:34:19;;;;;;;1.52;0.75;;;12.80;99.90;;;;;;5004924;28;20064;-76
2022/10/22 06:36:46;;;;;;;1.90;0.75;;;12.80;99.90;;;;;;5003403;28;20057;-76
2022/10/22 06:39:14;;;;;;;2.63;0.93;;;12.80;99.90;;;;;;5037977;28;20079;-77
2022/10/22 06:41:40;;;;;;;2.03;0.70;;;12.80;99.90;;;;;;5004850;28;20057;-78
2022/10/22 06:44:12;;;;;;;2.13;0.90;;;12.80;99.90;;;;;;5003795;28;20633;-78
2022/10/22 06:46:39;;;;;;;1.60;0.80;;;12.80;99.90;;;;;;5022010;28;20056;-77
2022/10/22 06:49:11;;;;;;;2.00;0.80;;;12.80;99.90;;;;;;5033688;28;20544;-77
2022/10/22 06:51:38;;;;;;;1.10;0.73;;;12.80;99.90;;;;;;5019295;28;20060;-78
2022/10/22 06:54:05;;;;;;;1.33;0.90;;;12.80;99.90;;;;;;5052129;28;20153;-77
2022/10/22 06:56:31;;;;;;;2.55;0.90;;;12.80;99.90;;;;;;5019570;28;20549;-77
2022/10/22 06:58:58;;;;;;;1.95;0.90;;;12.80;99.90;;;;;;5016293;28;20053;-77
2022/10/22 07:01:29;;;;;;;2.30;0.88;;;12.80;99.90;;;;;;5021157;28;20481;-77
2022/10/22 07:03:56;;;;;;;1.38;0.88;;;12.90;99.90;;;;;;5019308;28;20069;-77
2022/10/22 07:06:23;;;;;;;1.35;0.80;;;12.90;99.90;;;;;;5055156;28;20049;-77
2022/10/22 07:08:50;;;;;;;1.90;0.80;;;12.90;99.90;;;;;;5002378;28;20053;-77
2022/10/22 07:11:19;;;;;;;1.42;0.70;;;13.00;99.90;;;;;;5020362;28;20113;-77
2022/10/22 07:13:46;;;;;;;1.63;0.90;;;13.00;99.90;;;;;;5022942;28;20049;-77
2022/10/22 07:16:13;;;;;;;4.50;1.25;;;13.10;99.90;;;;;;5020003;28;20645;-78
2022/10/22 07:18:40;;;;;;;1.48;0.57;;;13.10;99.90;;;;;;5007038;28;20566;-78
2022/10/22 07:21:07;;;;;;;1.58;0.85;;;13.20;99.90;;;;;;4997421;28;20052;-77
2022/10/22 07:23:34;;;;;;;5.10;1.10;;;13.30;99.90;;;;;;5001590;28;20152;-77
2022/10/22 07:26:01;;;;;;;2.50;0.90;;;13.30;99.90;;;;;;4996644;28;20045;-77
2022/10/22 07:28:29;;;;;;;3.38;1.45;;;13.50;99.90;;;;;;5004267;28;20056;-78
2022/10/22 07:30:56;;;;;;;1.83;0.80;;;13.50;99.90;;;;;;5007682;28;20060;-78
2022/10/22 07:33:22;;;;;;;1.98;0.90;;;13.50;99.90;;;;;;5056001;28;20140;-77
2022/10/22 07:35:49;;;;;;;2.85;1.17;;;13.60;99.90;;;;;;5016992;28;20071;-78
2022/10/22 07:38:16;;;;;;;3.53;1.33;;;13.60;99.90;;;;;;5020271;28;20057;-77
2022/10/22 07:40:43;;;;;;;2.85;1.20;;;13.70;99.90;;;;;;5025010;28;20060;-78
2022/10/22 07:43:10;;;;;;;2.72;1.10;;;13.70;99.90;;;;;;5035768;28;20041;-78
2022/10/22 07:45:37;;;;;;;4.15;1.83;;;13.80;99.90;;;;;;5040022;28;20044;-77
2022/10/22 07:48:04;;;;;;;3.80;1.00;;;13.80;99.90;;;;;;5033715;28;20156;-77
2022/10/22 07:50:31;;;;;;;2.05;1.13;;;13.80;99.90;;;;;;5036941;28;20855;-77
2022/10/22 07:52:58;;;;;;;3.92;1.00;;;13.80;99.90;;;;;;5020472;28;20048;-77
2022/10/22 07:55:24;;;;;;;4.95;1.33;;;13.80;99.90;;;;;;5017515;28;20068;-77
2022/10/22 07:57:52;;;;;;;2.30;1.10;;;13.80;99.90;;;;;;5022522;28;20049;-77
2022/10/22 08:00:18;;;;;;;5.97;1.63;;;13.80;99.90;;;;;;5029630;28;20068;-77
2022/10/22 08:02:50;;;;;;;4.75;1.50;;;13.80;99.90;;;;;;5017232;28;20203;-78
2022/10/22 08:05:17;;;;;;;6.15;1.80;;;13.90;99.90;;;;;;5004105;28;20052;-78
2022/10/22 08:07:44;;;;;;;3.60;1.33;;;13.90;99.90;;;;;;5041669;28;20044;-78
2022/10/22 08:10:11;;;;;;;2.08;0.90;;;13.90;99.90;;;;;;5036122;28;20056;-77
2022/10/22 08:12:38;;;;;;;2.25;1.30;;;13.90;99.90;;;;;;5001967;28;20049;-78
2022/10/22 08:15:05;;;;;;;2.22;1.17;;;13.90;99.90;;;;;;5014940;28;20166;-78
2022/10/22 08:17:32;;;;;;;2.20;0.95;;;13.90;99.90;;;;;;5015818;28;20129;-78
2022/10/22 08:19:59;;;;;;;3.55;0.85;;;14.00;99.90;;;;;;5035951;28;20460;-77
2022/10/22 08:22:26;;;;;;;2.47;1.17;;;14.00;99.90;;;;;;5015844;28;20473;-78
2022/10/22 08:24:53;;;;;;;2.72;1.08;;;14.00;99.90;;;;;;5035637;28;20046;-78
2022/10/22 08:27:20;;;;;;;4.38;1.20;;;14.00;99.90;;;;;;5021495;28;20618;-78
2022/10/22 08:29:46;;;;;;;3.80;1.58;;;14.10;99.90;;;;;;5041740;28;20119;-78
2022/10/22 08:32:13;;;;;;;3.83;1.60;;;14.10;99.90;;;;;;5038524;28;20052;-78
2022/10/22 08:34:40;;;;;;;2.63;1.20;;;14.10;99.90;;;;;;5011731;28;20440;-78
2022/10/22 08:37:07;;;;;;;2.63;1.10;;;14.10;99.90;;;;;;5009689;28;20466;-79
2022/10/22 08:39:34;;;;;;;2.70;1.30;;;14.20;99.90;;;;;;5056896;28;20049;-78
2022/10/22 08:42:26;;;;;;;5.05;1.80;;;14.20;99.90;;;;;;5024002;28;20053;-79
2022/10/22 08:45:12;;;;;;;2.45;1.02;;;14.20;99.90;;;;;;5024947;28;20790;-78
2022/10/22 08:47:38;;;;;;;3.15;1.20;;;14.30;99.90;;;;;;5047004;28;20152;-81
2022/10/22 08:50:14;;;;;;;4.13;1.33;;;14.30;99.90;;;;;;5058705;28;20061;-76
2022/10/22 08:52:41;;;;;;;2.17;0.95;;;14.40;99.90;;;;;;5039552;28;20693;-77
2022/10/22 08:55:12;;;;;;;1.60;0.75;;;14.40;99.90;;;;;;5011931;28;20053;-77
2022/10/22 08:57:48;;;;;;;1.90;1.08;;;14.50;99.90;;;;;;5050949;28;20124;-76
2022/10/22 09:00:27;;;;;;;2.83;0.93;;;14.50;99.90;;;;;;5037372;28;20052;-76
2022/10/22 09:03:19;;;;;;;4.30;1.17;;;14.60;99.90;;;;;;5023465;28;20041;-76
2022/10/22 09:05:55;;;;;;;2.70;0.95;;;14.60;99.90;;;;;;5019787;28;20121;-76
2022/10/22 09:08:22;;;;;;;2.22;1.48;;;14.70;99.90;;;;;;5040099;28;20626;-76
2022/10/22 09:10:52;;;;;;;2.58;1.17;;;14.70;99.90;;;;;;5019086;28;20421;-76
2022/10/22 09:13:19;;;;;;;2.67;1.08;;;14.80;99.90;;;;;;5000289;28;20139;-76
2022/10/22 09:15:55;;;;;;;2.03;1.02;;;15.00;99.90;;;;;;5041259;28;20052;-76
2022/10/22 09:18:35;;;;;;;2.08;1.05;;;15.10;99.90;;;;;;5002574;28;20057;-75
2022/10/22 09:21:23;;;;;;;3.70;1.20;;;15.30;99.90;;;;;;5021514;28;20060;-77
2022/10/22 09:24:14;;;;;;;1.45;1.00;;;15.30;99.90;;;;;;5042194;28;20053;-77
2022/10/22 09:26:41;;;;;;;2.78;1.00;;;15.50;99.90;;;;;;5025628;28;20124;-76
2022/10/22 09:29:33;;;;;;;2.33;0.80;;;15.60;99.90;;;;;;5015483;28;20896;-76
2022/10/22 09:32:00;;;;;;;1.20;0.82;;;15.70;99.90;;;;;;5019863;28;20081;-76
2022/10/22 09:34:27;;;;;;;1.85;1.10;;;15.80;99.90;;;;;;5002419;28;20049;-76
2022/10/22 09:37:01;;;;;;;2.47;0.98;;;15.90;99.90;;;;;;5002175;28;20072;-76
2022/10/22 09:39:39;;;;;;;3.53;1.30;;;16.00;99.90;;;;;;5018448;28;20056;-76
2022/10/22 09:42:08;;;;;;;3.40;1.10;;;16.10;99.90;;;;;;5003058;28;20461;-76
2022/10/22 09:44:36;;;;;;;2.58;1.27;;;16.20;99.90;;;;;;5013966;28;20053;-76
2022/10/22 09:47:06;;;;;;;2.17;1.00;;;16.30;99.90;;;;;;5002060;28;20050;-76
2022/10/22 09:49:34;;;;;;;2.78;1.20;;;16.30;99.90;;;;;;5014539;28;20061;-76
2022/10/22 09:52:01;;;;;;;2.45;1.15;;;16.40;99.90;;;;;;5037889;28;20040;-76
2022/10/22 09:54:31;;;;;;;4.47;1.30;;;16.50;99.90;;;;;;5021145;28;20158;-76
2022/10/22 09:57:20;;;;;;;2.90;1.35;;;16.50;99.90;;;;;;5046156;28;20120;-76
2022/10/22 09:59:49;;;;;;;3.33;1.40;;;16.50;99.90;;;;;;5009726;28;20164;-77
2022/10/22 10:02:21;;;;;;;5.35;1.80;;;16.50;99.90;;;;;;5029021;28;20055;-77
2022/10/22 10:05:04;;;;;;;5.00;1.40;;;16.40;99.90;;;;;;5024023;28;20126;-76
2022/10/22 10:07:32;;;;;;;3.78;1.25;;;16.50;99.90;;;;;;5022509;28;20049;-77
2022/10/22 10:09:59;;;;;;;4.00;1.80;;;16.50;99.90;;;;;;5028658;28;20060;-76
2022/10/22 10:12:31;;;;;;;3.10;1.40;;;16.60;99.90;;;;;;5003040;28;20050;-76
2022/10/22 10:14:58;;;;;;;6.28;1.88;;;16.70;99.90;;;;;;5039040;28;20059;-77
2022/10/22 10:17:32;;;;;;;4.40;1.35;;;16.70;99.90;;;;;;5039596;28;20057;-77
2022/10/22 10:20:02;;;;;;;3.05;1.30;;;16.80;99.90;;;;;;5022461;28;20139;-78
2022/10/22 10:22:45;;;;;;;3.25;1.35;;;16.90;99.90;;;;;;5037495;28;20052;-77
2022/10/22 10:25:33;;;;;;;4.32;1.77;;;16.80;99.90;;;;;;5039588;28;20154;-77
2022/10/22 10:28:18;;;;;;;3.40;1.23;;;16.80;99.90;;;;;;5059108;28;20049;-77
2022/10/22 10:31:15;;;;;;;3.33;1.10;;;16.90;99.90;;;;;;5037378;28;20068;-76
2022/10/22 10:34:07;;;;;;;4.22;1.40;;;16.90;99.90;;;;;;4985095;28;20051;-77
2022/10/22 10:36:36;;;;;;;5.88;1.60;;;16.90;99.90;;;;;;5036211;28;20055;-76
2022/10/22 10:39:16;;;;;;;3.05;1.20;;;17.00;99.90;;;;;;5036775;28;20140;-76
2022/10/22 10:41:58;;;;;;;2.63;1.33;;;17.10;99.90;;;;;;5036484;28;20066;-77
2022/10/22 10:45:07;;;;;;;3.37;1.40;;;17.10;99.90;;;;;;5004249;28;20445;-77
2022/10/22 10:48:07;;;;;;;2.60;1.20;;;17.20;99.90;;;;;;4973973;28;20133;-77
2022/10/22 10:50:43;;;;;;;3.90;1.55;;;17.20;99.90;;;;;;4926852;28;20054;-77
2022/10/22 10:53:46;;;;;;;2.17;1.02;;;17.40;99.90;;;;;;5017429;28;20063;-77
2022/10/22 10:56:43;;;;;;;2.10;0.90;;;17.40;99.90;;;;;;5020299;28;20357;-77
2022/10/22 10:59:15;;;;;;;5.15;1.33;;;17.50;99.90;;;;;;5049732;28;20053;-77
2022/10/22 11:02:18;;;;;;;2.60;1.25;;;17.60;99.90;;;;;;5037249;28;20049;-77
2022/10/22 11:04:48;;;;;;;3.55;1.30;;;17.70;99.90;;;;;;5040099;28;20504;-77
2022/10/22 11:07:17;;;;;;;3.72;1.52;;;17.80;99.90;;;;;;5040357;28;20048;-77
2022/10/22 11:10:34;;;;;;;3.20;1.33;;;17.80;99.90;;;;;;5027781;28;20079;-77
2022/10/22 11:13:09;;;;;;;2.58;1.10;;;17.90;99.90;;;;;;5021809;28;20480;-77
2022/10/22 11:15:36;;;;;;;3.25;1.17;;;18.10;99.90;;;;;;5040717;28;20072;-78
2022/10/22 11:18:07;;;;;;;1.83;0.93;;;18.30;99.90;;;;;;4998575;28;20060;-77
2022/10/22 11:20:46;;;;;;;2.30;1.02;;;18.30;99.90;;;;;;5027236;28;20447;-77
2022/10/22 11:23:45;;;;;;;1.90;0.75;;;18.50;99.90;;;;;;5043763;28;20049;-77
2022/10/22 11:26:34;;;;;;;1.80;0.90;;;18.60;99.90;;;;;;5032006;28;20071;-77
2022/10/22 11:29:02;;;;;;;2.08;0.82;;;18.70;99.90;;;;;;5041237;28;20645;-77
2022/10/22 11:31:29;;;;;;;2.60;0.90;;;18.70;99.90;;;;;;5023120;28;20044;-83
2022/10/22 11:34:02;;;;;;;1.02;0.55;;;18.80;99.90;;;;;;5022471;28;20057;-77
2022/10/22 11:36:46;;;;;;;1.55;0.88;;;18.80;99.90;;;;;;5036485;28;20041;-78
2022/10/22 11:39:40;;;;;;;1.88;0.80;;;18.90;99.90;;;;;;5021573;28;20045;-78
2022/10/22 11:42:10;;;;;;;1.92;1.05;;;19.10;99.90;;;;;;5036315;28;20059;-78
2022/10/22 11:45:00;;;;;;;3.85;1.35;;;19.30;99.90;;;;;;5032764;28;20597;-77
2022/10/22 11:47:38;;;;;;;1.55;0.80;;;19.30;99.90;;;;;;5034575;28;20045;-77
2022/10/22 11:50:14;;;;;;;2.45;1.02;;;19.60;99.90;;;;;;5020680;28;20592;-77
2022/10/22 11:52:49;;;;;;;2.50;1.23;;;19.80;99.90;;;;;;5037937;28;20056;-77
2022/10/22 11:55:31;;;;;;;2.95;1.20;;;19.90;99.90;;;;;;5006072;28;20044;-78
2022/10/22 11:58:00;;;;;;;2.42;1.00;;;20.20;99.90;;;;;;5034057;28;20076;-77
2022/10/22 12:00:39;;;;;;;2.53;1.10;;;20.30;99.90;;;;;;5019650;28;20057;-77
2022/10/22 12:03:32;;;;;;;3.92;1.23;;;20.60;99.90;;;;;;5036717;28;20048;-77
2022/10/22 12:06:11;;;;;;;;;;;20.50;99.90;;;;;;5039356;28;20451;-77
2022/10/22 12:08:47;;;;;;;4.03;1.45;;;20.30;99.90;;;;;;5035676;28;20034;-77
2022/10/22 12:11:14;;;;;;;1.48;0.82;;;20.30;99.90;;;;;;5036531;28;20122;-77
2022/10/22 12:13:51;;;;;;;2.03;0.80;;;20.40;99.90;;;;;;5038836;28;20064;-77
2022/10/22 12:16:20;;;;;;;1.95;0.80;;;20.50;99.90;;;;;;5037237;28;20068;-77
2022/10/22 12:19:10;;;;;;;1.23;0.73;;;20.30;99.90;;;;;;5007221;28;20052;-77
2022/10/22 12:21:37;;;;;;;2.28;0.82;;;20.30;99.90;;;;;;5033241;28;20041;-77
2022/10/22 12:24:04;;;;;;;2.03;0.73;;;20.40;99.90;;;;;;5004163;28;20120;-77
2022/10/22 12:26:34;;;;;;;1.35;0.80;;;20.70;99.90;;;;;;5021349;28;20556;-77
2022/10/22 12:29:05;;;;;;;1.23;0.73;;;21.10;99.90;;;;;;5020360;28;20061;-77
2022/10/22 12:31:36;;;;;;;1.75;0.60;;;21.30;99.90;;;;;;5021694;28;20412;-77
2022/10/22 12:34:04;;;;;;;3.23;0.80;;;21.30;99.90;;;;;;5038762;28;20045;-77
2022/10/22 12:36:34;;;;;;;0.95;0.47;;;21.60;99.90;;;;;;5004689;28;20047;-77
2022/10/22 12:39:11;;;;;;;1.38;0.60;;;21.60;99.90;;;;;;5039867;28;20393;-77
2022/10/22 12:41:38;;;;;;;2.95;1.08;;;21.60;99.90;;;;;;5005334;28;20056;-77
2022/10/22 12:44:05;;;;;;;1.67;0.90;;;21.40;99.90;;;;;;5022269;28;20075;-77
2022/10/22 12:46:34;;;;;;;1.35;0.63;;;21.30;99.90;;;;;;4998498;28;20041;-77
2022/10/22 12:49:07;;;;;;;1.02;0.57;;;21.30;99.90;;;;;;5002434;28;20064;-77
2022/10/22 12:51:34;;;;;;;1.75;0.68;;;21.30;99.90;;;;;;5020351;28;20045;-77
2022/10/22 12:54:24;;;;;;;1.17;0.60;;;21.30;99.90;;;;;;5021828;28;20057;-77
2022/10/22 12:56:51;;;;;;;2.42;0.90;;;21.10;99.90;;;;;;5024882;28;20053;-77
2022/10/22 12:59:25;;;;;;;0.93;0.50;;;20.80;99.90;;;;;;5005034;28;20136;-78
2022/10/22 13:01:52;;;;;;;1.15;0.63;;;20.70;99.90;;;;;;5021233;28;20049;-77
2022/10/22 13:04:32;;;;;;;1.90;0.70;;;20.50;99.90;;;;;;5006595;28;20179;-78
2022/10/22 13:07:13;;;;;;;0.50;0.40;;;20.20;99.90;;;;;;5039989;28;20048;-77
2022/10/22 13:09:56;;;;;;;1.05;0.57;;;20.00;99.90;;;;;;5041272;28;20065;-77
2022/10/22 13:12:33;;;;;;;1.35;0.70;;;19.80;99.90;;;;;;5022633;28;20499;-77
2022/10/22 13:15:18;;;;;;;1.08;0.75;;;19.60;99.90;;;;;;5024420;28;20099;-77
2022/10/22 13:17:46;;;;;;;0.93;0.60;;;19.60;99.90;;;;;;5009682;28;20041;-77
2022/10/22 13:20:20;;;;;;;1.25;0.60;;;19.60;99.90;;;;;;5042287;28;20052;-77
2022/10/22 13:23:02;;;;;;;1.52;0.70;;;19.60;99.90;;;;;;5040355;28;20037;-77
2022/10/22 13:25:51;;;;;;;1.15;0.60;;;19.50;99.90;;;;;;5012253;28;20051;-77